This is the latest recevied weather packets stored in our database for station/object SV2AHT-14. If no packets are shown the sender has not sent any weather packets the latest 1 day(s).
| Time | Temp. | Humidity | Pressure | Rain* | Wind** | Luminosity | Snow |
|---|---|---|---|---|---|---|---|
| 1778081838 | 16.67° C | 40% | 819.2 hPa | - | - | - | - |
| 1778080947 | 18.33° C | 39% | 819.3 hPa | - | - | - | - |
| 1778078235 | 19.44° C | 37% | 819.3 hPa | - | - | - | - |
| 1778063835 | 23.89° C | 41% | 819.9 hPa | - | - | - | - |
| 1778062043 | 22.22° C | 42% | 820.1 hPa | - | - | - | - |
| 1778059328 | 21.67° C | 43% | 820 hPa | - | - | - | - |
| 1778055734 | 18.89° C | 44% | 819.7 hPa | - | - | - | - |
| 1778053932 | 18.89° C | 45% | 819.6 hPa | - | - | - | - |
| 1778053035 | 18.33° C | 46% | 819.5 hPa | - | - | - | - |
| 1778052133 | 17.22° C | 47% | 819.4 hPa | - | - | - | - |
| 1778051231 | 16.67° C | 49% | 819.3 hPa | - | - | - | - |
| 1778050339 | 15.56° C | 50% | 819.4 hPa | - | - | - | - |
| 1778022224 | 9.44° C | 51% | 818.7 hPa | - | - | - | - |
| 1778020424 | 9.44° C | 49% | 818.8 hPa | - | - | - | - |
| 1778019524 | 9.44° C | 48% | 818.8 hPa | - | - | - | - |
| 1778018624 | 9.44° C | 48% | 818.7 hPa | - | - | - | - |
| 1778017724 | 9.44° C | 47% | 818.8 hPa | - | - | - | - |
| 1778016824 | 9.44° C | 47% | 819 hPa | - | - | - | - |
| 1778003356 | 9.44° C | 48% | 818.7 hPa | - | - | - | - |
| 1778003323 | 9.44° C | 48% | 818.7 hPa | - | - | - | - |
* Rain since midnight (hover to see other rain measurements)
** Current wind speed in m/s (hover to see current wind gust speed)